createdAt,value
2018-09-04T00:01:43.683Z,69.30
2018-09-04T00:04:10.503Z,69.30
2018-09-04T00:06:37.279Z,69.40
2018-09-04T00:09:04.117Z,69.40
2018-09-04T00:11:30.799Z,69.40
2018-09-04T00:13:57.661Z,69.40
2018-09-04T00:16:24.429Z,69.40
2018-09-04T00:18:51.125Z,69.40
2018-09-04T00:21:17.877Z,70.20
2018-09-04T00:23:44.629Z,69.50
2018-09-04T00:26:11.285Z,69.40
2018-09-04T00:28:38.098Z,69.50
2018-09-04T00:31:04.887Z,69.40
2018-09-04T00:33:31.625Z,69.50
2018-09-04T00:35:58.424Z,69.50
2018-09-04T00:38:25.130Z,69.30
2018-09-04T00:40:51.853Z,69.40
2018-09-04T00:43:18.584Z,69.40
2018-09-04T00:45:45.413Z,69.50
2018-09-04T00:48:12.210Z,69.50
2018-09-04T00:50:38.952Z,69.40
2018-09-04T00:53:05.642Z,69.40
2018-09-04T00:55:32.408Z,69.50
2018-09-04T00:57:59.176Z,69.50
2018-09-04T01:00:27.690Z,69.50
2018-09-04T01:02:54.672Z,69.60
2018-09-04T01:05:21.362Z,69.50
2018-09-04T01:07:48.017Z,69.50
2018-09-04T01:10:14.686Z,69.50
2018-09-04T01:12:41.364Z,69.50
2018-09-04T01:15:08.098Z,69.50
2018-09-04T01:17:34.761Z,69.60
2018-09-04T01:20:01.444Z,69.60
2018-09-04T01:22:28.313Z,69.60
2018-09-04T01:24:55.036Z,69.50
2018-09-04T01:27:21.736Z,69.60
2018-09-04T01:29:48.452Z,70.40
2018-09-04T01:32:15.177Z,69.60
2018-09-04T01:34:42.168Z,69.70
2018-09-04T01:37:09.010Z,69.70
2018-09-04T01:39:35.821Z,69.70
2018-09-04T01:42:02.589Z,69.70
2018-09-04T01:44:29.268Z,69.70
2018-09-04T01:46:55.980Z,69.70
2018-09-04T01:49:22.679Z,69.80
2018-09-04T01:51:49.516Z,69.80
2018-09-04T01:54:16.178Z,69.80
2018-09-04T01:56:42.903Z,69.80
2018-09-04T01:59:09.623Z,69.90
2018-09-04T02:01:36.762Z,69.80
2018-09-04T02:04:03.479Z,69.90
2018-09-04T02:06:30.195Z,69.80
2018-09-04T02:08:57.033Z,69.80
2018-09-04T02:11:23.785Z,69.80
2018-09-04T02:13:50.495Z,69.80
2018-09-04T02:16:17.316Z,69.90
2018-09-04T02:18:44.035Z,69.80
2018-09-04T02:21:10.729Z,69.90
2018-09-04T02:23:37.554Z,69.90
2018-09-04T02:26:04.301Z,69.80
2018-09-04T02:28:31.103Z,70.00
2018-09-04T02:30:57.850Z,69.90
2018-09-04T02:33:24.548Z,70.00
2018-09-04T02:35:51.263Z,69.80
2018-09-04T02:38:17.926Z,69.90
2018-09-04T02:40:44.596Z,69.90
2018-09-04T02:43:11.283Z,70.00
2018-09-04T02:45:37.962Z,70.00
2018-09-04T02:48:04.707Z,70.00
2018-09-04T02:50:31.437Z,70.00
2018-09-04T02:52:58.107Z,70.00
2018-09-04T02:55:24.904Z,70.00
2018-09-04T02:57:51.667Z,70.00
2018-09-04T03:00:18.455Z,70.00
2018-09-04T03:02:45.237Z,69.80
2018-09-04T03:05:12.037Z,70.00
2018-09-04T03:07:38.727Z,69.90
2018-09-04T03:10:05.425Z,70.00
2018-09-04T03:12:32.204Z,70.10
2018-09-04T03:14:58.916Z,69.90
2018-09-04T03:17:25.619Z,70.00
2018-09-04T03:19:52.258Z,69.90
2018-09-04T03:22:19.075Z,70.10
2018-09-04T03:24:45.806Z,70.00
2018-09-04T03:27:12.631Z,69.90
2018-09-04T03:29:39.389Z,69.90
2018-09-04T03:32:06.155Z,70.00
2018-09-04T03:34:32.918Z,70.10
2018-09-04T03:36:59.740Z,70.00
2018-09-04T03:39:26.481Z,70.00
2018-09-04T03:41:53.263Z,70.00
2018-09-04T03:44:20.087Z,69.90
2018-09-04T03:46:46.814Z,69.90
2018-09-04T03:49:13.523Z,70.00
2018-09-04T03:51:40.255Z,70.00
2018-09-04T03:54:07.188Z,70.00
2018-09-04T03:56:33.995Z,70.00
2018-09-04T03:59:00.704Z,70.00
2018-09-04T04:01:27.469Z,70.00
2018-09-04T04:03:54.220Z,70.60
2018-09-04T04:06:20.962Z,70.10
2018-09-04T04:08:47.782Z,70.00
2018-09-04T04:11:14.632Z,70.00
2018-09-04T04:13:41.373Z,70.00
2018-09-04T04:16:08.103Z,70.10
2018-09-04T04:18:34.851Z,70.00
2018-09-04T04:21:01.972Z,70.10
2018-09-04T04:23:29.378Z,70.10
2018-09-04T04:25:57.527Z,70.10
2018-09-04T04:28:24.714Z,70.30
2018-09-04T04:30:51.502Z,70.10
2018-09-04T04:33:18.355Z,70.10
2018-09-04T04:35:45.091Z,70.10
2018-09-04T04:38:11.791Z,70.00
2018-09-04T04:40:38.603Z,70.10
2018-09-04T04:43:05.379Z,70.10
2018-09-04T04:45:32.116Z,70.10
2018-09-04T04:47:58.908Z,70.10
2018-09-04T04:50:25.687Z,70.20
2018-09-04T04:52:52.404Z,70.00
2018-09-04T04:55:19.273Z,70.90
2018-09-04T04:57:45.967Z,70.10
2018-09-04T05:00:12.655Z,70.20
2018-09-04T05:02:39.640Z,70.10
2018-09-04T05:05:06.768Z,70.00
2018-09-04T05:07:33.674Z,70.10
2018-09-04T05:10:00.519Z,70.10
2018-09-04T05:12:27.258Z,70.10
2018-09-04T05:14:54.093Z,70.20
2018-09-04T05:17:20.920Z,70.10
2018-09-04T05:19:47.691Z,70.20
2018-09-04T05:22:14.542Z,70.20
2018-09-04T05:24:41.528Z,70.10
2018-09-04T05:27:08.299Z,70.20
2018-09-04T05:29:35.053Z,70.20
2018-09-04T05:33:07.263Z,70.10
2018-09-04T05:35:38.323Z,70.20
2018-09-04T05:38:05.155Z,70.20
2018-09-04T05:40:31.883Z,70.10
2018-09-04T05:43:01.040Z,70.20
2018-09-04T05:45:29.229Z,70.30
2018-09-04T05:48:08.719Z,70.20
2018-09-04T05:50:35.623Z,70.20
2018-09-04T05:53:02.499Z,70.20
2018-09-04T05:55:29.589Z,70.30
2018-09-04T05:57:56.564Z,70.20
2018-09-04T06:00:26.241Z,70.40
2018-09-04T06:02:53.007Z,70.30
2018-09-04T06:05:19.747Z,70.40
2018-09-04T06:07:46.601Z,70.30
2018-09-04T06:10:13.369Z,70.40
2018-09-04T06:12:40.109Z,70.40
2018-09-04T06:15:06.941Z,70.30
2018-09-04T06:17:33.807Z,70.40
2018-09-04T06:20:00.701Z,70.40
2018-09-04T06:22:27.654Z,70.30
2018-09-04T06:24:54.447Z,70.40
2018-09-04T06:27:21.237Z,70.40
2018-09-04T06:29:47.959Z,70.40
2018-09-04T06:32:14.715Z,70.40
2018-09-04T06:34:41.514Z,70.50
2018-09-04T06:37:08.413Z,70.50
2018-09-04T06:39:35.313Z,70.40
2018-09-04T06:42:02.181Z,70.50
2018-09-04T06:44:29.005Z,70.50
2018-09-04T06:46:55.766Z,70.60
2018-09-04T06:49:22.593Z,70.50
2018-09-04T06:51:49.419Z,70.50
2018-09-04T06:54:16.133Z,70.50
2018-09-04T06:56:42.917Z,70.50
2018-09-04T06:59:09.929Z,70.60
2018-09-04T07:01:36.679Z,70.60
2018-09-04T07:04:03.589Z,70.60
2018-09-04T07:06:30.944Z,70.70
2018-09-04T07:08:57.700Z,70.70
2018-09-04T07:11:24.483Z,70.60
2018-09-04T07:13:51.304Z,70.70
2018-09-04T07:16:18.070Z,70.70
2018-09-04T07:18:44.756Z,70.60
2018-09-04T07:21:11.444Z,70.70
2018-09-04T07:23:38.338Z,70.70
2018-09-04T07:26:05.146Z,70.70
2018-09-04T07:28:31.954Z,70.70
2018-09-04T07:30:58.742Z,70.70
2018-09-04T07:33:25.518Z,70.70
2018-09-04T07:35:52.250Z,70.80
2018-09-04T07:38:18.981Z,70.80
2018-09-04T07:40:45.798Z,70.80
2018-09-04T07:43:12.539Z,70.80
2018-09-04T07:45:39.266Z,70.80
2018-09-04T07:48:06.000Z,70.80
2018-09-04T07:50:32.826Z,70.70
2018-09-04T07:52:59.708Z,71.30
2018-09-04T07:55:26.475Z,70.90
2018-09-04T07:57:53.359Z,70.80
2018-09-04T08:00:20.163Z,70.90
2018-09-04T08:02:47.054Z,70.80
2018-09-04T08:05:13.854Z,70.90
2018-09-04T08:07:40.762Z,70.90
2018-09-04T08:10:07.627Z,70.80
2018-09-04T08:12:34.528Z,70.80
2018-09-04T08:15:01.431Z,70.90
2018-09-04T08:17:28.233Z,70.90
2018-09-04T08:19:55.453Z,70.90
2018-09-04T08:22:22.252Z,70.90
2018-09-04T08:24:48.992Z,71.00
2018-09-04T08:27:15.693Z,70.90
2018-09-04T08:29:42.478Z,70.90
2018-09-04T08:32:09.451Z,71.00
2018-09-04T08:34:36.164Z,71.00
2018-09-04T08:37:02.839Z,70.90
2018-09-04T08:39:29.558Z,70.90
2018-09-04T08:41:56.299Z,70.90
2018-09-04T08:44:23.135Z,71.00
2018-09-04T08:46:49.991Z,71.00
2018-09-04T08:49:16.817Z,71.00
2018-09-04T08:51:43.604Z,71.80
2018-09-04T08:54:10.419Z,71.00
2018-09-04T08:56:37.517Z,71.00
2018-09-04T08:59:04.425Z,71.00
2018-09-04T09:01:31.297Z,71.10
2018-09-04T09:03:58.011Z,71.10
2018-09-04T09:06:24.797Z,71.10
2018-09-04T09:08:51.548Z,71.10
2018-09-04T09:11:18.325Z,71.10
2018-09-04T09:13:45.068Z,71.10
2018-09-04T09:16:11.831Z,71.10
2018-09-04T09:18:38.651Z,71.10
2018-09-04T09:21:05.482Z,71.10
2018-09-04T09:23:32.224Z,71.10
2018-09-04T09:25:59.007Z,71.20
2018-09-04T09:28:26.031Z,71.30
2018-09-04T09:30:52.827Z,71.40
2018-09-04T09:33:19.621Z,71.30
2018-09-04T09:35:46.398Z,71.30
2018-09-04T09:38:13.191Z,72.20
2018-09-04T09:40:40.032Z,71.30
2018-09-04T09:43:07.168Z,71.40
2018-09-04T09:45:34.090Z,71.40
2018-09-04T09:48:00.873Z,71.40
2018-09-04T09:50:27.605Z,71.40
2018-09-04T09:52:54.476Z,71.40
2018-09-04T09:55:21.198Z,71.40
2018-09-04T09:57:47.960Z,71.50
2018-09-04T10:00:20.302Z,71.40
2018-09-04T10:02:49.276Z,71.40
2018-09-04T10:05:16.090Z,71.50
2018-09-04T10:07:43.019Z,71.40
2018-09-04T10:10:09.751Z,71.40
2018-09-04T10:12:36.518Z,71.40
2018-09-04T10:15:03.468Z,71.30
2018-09-04T10:17:30.212Z,71.40
2018-09-04T10:19:57.043Z,71.40
2018-09-04T10:22:23.797Z,71.40
2018-09-04T10:24:50.552Z,71.40
2018-09-04T10:27:17.419Z,71.40
2018-09-04T10:29:44.151Z,71.50
2018-09-04T10:32:10.928Z,71.50
2018-09-04T10:34:37.659Z,71.50
2018-09-04T10:37:04.352Z,71.30
2018-09-04T10:39:36.647Z,71.40
2018-09-04T10:42:03.382Z,71.60
2018-09-04T10:44:32.137Z,71.50
2018-09-04T10:46:58.901Z,71.50
2018-09-04T10:49:25.627Z,71.40
2018-09-04T10:51:52.411Z,72.20
2018-09-04T10:54:19.233Z,70.80
2018-09-04T10:56:46.040Z,71.50
2018-09-04T10:59:13.181Z,71.50
2018-09-04T11:01:39.963Z,71.50
2018-09-04T11:04:06.741Z,71.50
2018-09-04T11:06:33.473Z,72.20
2018-09-04T11:09:00.364Z,71.50
2018-09-04T11:11:27.053Z,71.50
2018-09-04T11:13:53.753Z,71.60
2018-09-04T11:16:20.525Z,71.50
2018-09-04T11:18:47.337Z,71.50
2018-09-04T11:21:14.063Z,71.50
2018-09-04T11:23:40.809Z,71.50
2018-09-04T11:26:07.532Z,71.60
2018-09-04T11:28:34.349Z,71.60
2018-09-04T11:31:01.154Z,71.60
2018-09-04T11:33:27.962Z,71.60
2018-09-04T11:35:54.901Z,71.60
2018-09-04T11:38:21.657Z,71.60
2018-09-04T11:40:48.402Z,71.60
2018-09-04T11:43:15.183Z,71.60
2018-09-04T11:45:41.909Z,71.70
2018-09-04T11:48:08.822Z,71.60
2018-09-04T11:50:35.509Z,71.70
2018-09-04T11:53:02.256Z,71.60
2018-09-04T11:55:29.147Z,71.70
2018-09-04T11:57:55.893Z,71.60
2018-09-04T12:00:33.965Z,71.40
2018-09-04T12:03:00.737Z,71.60
2018-09-04T12:05:27.448Z,71.50
2018-09-04T12:07:54.203Z,71.60
2018-09-04T12:10:20.983Z,71.60
2018-09-04T12:12:47.944Z,71.60
2018-09-04T12:15:14.620Z,71.60
2018-09-04T12:17:41.507Z,71.60
2018-09-04T12:20:08.875Z,71.60
2018-09-04T12:22:35.931Z,71.60
2018-09-04T12:25:02.815Z,71.60
2018-09-04T12:27:29.542Z,71.60
2018-09-04T12:29:56.235Z,71.60
2018-09-04T12:32:22.968Z,71.60
2018-09-04T12:34:49.696Z,71.60
2018-09-04T12:37:16.406Z,71.60
2018-09-04T12:39:47.688Z,71.60
2018-09-04T12:42:14.446Z,71.60
2018-09-04T12:44:41.302Z,71.50
2018-09-04T12:47:08.106Z,71.50
2018-09-04T12:49:34.871Z,71.60
2018-09-04T12:52:01.607Z,71.60
2018-09-04T12:54:28.358Z,71.60
2018-09-04T12:56:55.122Z,71.70
2018-09-04T12:59:21.916Z,71.60
2018-09-04T13:01:48.629Z,71.70
2018-09-04T13:04:15.355Z,72.50
2018-09-04T13:06:42.097Z,71.70
2018-09-04T13:09:09.148Z,71.60
2018-09-04T13:11:36.030Z,71.60
2018-09-04T13:14:02.850Z,71.70
2018-09-04T13:16:29.903Z,71.50
2018-09-04T13:18:57.550Z,71.50
2018-09-04T13:21:24.959Z,71.70
2018-09-04T13:23:51.691Z,71.70
2018-09-04T13:26:18.393Z,71.70
2018-09-04T13:28:45.198Z,71.70
2018-09-04T13:31:12.076Z,71.70
2018-09-04T13:33:38.998Z,71.60
2018-09-04T13:36:05.765Z,71.60
2018-09-04T13:38:32.651Z,71.60
2018-09-04T13:41:04.982Z,71.70
2018-09-04T13:43:31.735Z,71.70
2018-09-04T13:45:58.527Z,71.70
2018-09-04T13:48:28.990Z,71.60
2018-09-04T13:50:55.733Z,71.80
2018-09-04T13:53:22.571Z,71.70
2018-09-04T13:55:49.330Z,71.80
2018-09-04T13:58:16.132Z,71.80
2018-09-04T14:00:42.886Z,71.80
2018-09-04T14:03:09.659Z,71.80
2018-09-04T14:05:36.379Z,71.80
2018-09-04T14:08:03.052Z,71.80
2018-09-04T14:10:29.786Z,71.80
2018-09-04T14:12:56.739Z,71.70
2018-09-04T14:15:23.785Z,71.80
2018-09-04T14:17:50.665Z,71.70
2018-09-04T14:20:17.523Z,71.80
2018-09-04T14:22:44.374Z,71.80
2018-09-04T14:25:11.227Z,71.70
2018-09-04T14:27:38.082Z,71.80
2018-09-04T14:30:17.616Z,71.70
2018-09-04T14:32:31.720Z,71.60
2018-09-04T14:34:58.402Z,71.70
2018-09-04T14:37:25.081Z,71.80
2018-09-04T14:39:55.593Z,71.80
2018-09-04T14:42:18.944Z,71.60
2018-09-04T14:44:45.785Z,71.80
2018-09-04T14:47:12.630Z,71.90
2018-09-04T14:49:39.329Z,71.80
2018-09-04T14:52:06.035Z,71.80
2018-09-04T14:54:32.800Z,71.60
2018-09-04T14:56:59.775Z,71.90
2018-09-04T14:59:26.486Z,71.80
2018-09-04T15:01:53.168Z,71.90
2018-09-04T15:04:19.938Z,71.90
2018-09-04T15:06:46.694Z,71.90
2018-09-04T15:09:14.336Z,71.90
2018-09-04T15:11:41.069Z,71.90
2018-09-04T15:14:07.947Z,71.80
2018-09-04T15:16:34.748Z,71.80
2018-09-04T15:19:01.575Z,71.80
2018-09-04T15:21:28.350Z,71.80
2018-09-04T15:23:55.260Z,71.80
2018-09-04T15:26:22.058Z,71.80
2018-09-04T15:28:48.876Z,71.70
2018-09-04T15:31:15.734Z,71.70
2018-09-04T15:33:42.711Z,71.80
2018-09-04T15:36:09.513Z,71.80
2018-09-04T15:38:36.546Z,71.80
2018-09-04T15:41:03.255Z,71.70
2018-09-04T15:43:29.974Z,71.80
2018-09-04T15:45:56.898Z,71.80
2018-09-04T15:48:23.611Z,71.80
2018-09-04T15:50:50.313Z,71.80
2018-09-04T15:53:17.177Z,71.60
2018-09-04T15:55:43.910Z,71.60
2018-09-04T15:58:10.714Z,71.80
2018-09-04T16:00:37.533Z,71.80
2018-09-04T16:03:04.341Z,71.70
2018-09-04T16:05:31.136Z,71.70
2018-09-04T16:07:57.933Z,71.70
2018-09-04T16:10:24.783Z,71.80
2018-09-04T16:12:51.575Z,71.70
2018-09-04T16:15:18.368Z,72.60
2018-09-04T16:17:45.564Z,71.70
2018-09-04T16:20:12.294Z,71.80
2018-09-04T16:22:39.128Z,71.80
2018-09-04T16:25:05.940Z,71.80
2018-09-04T16:27:32.725Z,71.90
2018-09-04T16:29:59.460Z,71.80
2018-09-04T16:32:26.149Z,71.80
2018-09-04T16:34:52.960Z,71.80
2018-09-04T16:37:19.870Z,71.70
2018-09-04T16:39:46.704Z,71.80
2018-09-04T16:42:13.477Z,71.80
2018-09-04T16:44:40.244Z,71.80
2018-09-04T16:47:06.956Z,71.80
2018-09-04T16:49:33.728Z,71.80
2018-09-04T16:52:01.118Z,72.30
2018-09-04T16:54:28.508Z,72.50
2018-09-04T16:56:55.392Z,71.70
2018-09-04T16:59:22.214Z,71.70
2018-09-04T17:01:48.968Z,71.80
2018-09-04T17:04:16.198Z,72.50
2018-09-04T17:06:42.933Z,71.80
2018-09-04T17:09:09.650Z,71.80
2018-09-04T17:11:36.841Z,71.80
2018-09-04T17:14:03.571Z,72.60
2018-09-04T17:16:30.324Z,71.80
2018-09-04T17:18:57.225Z,71.10
2018-09-04T17:21:24.046Z,71.80
2018-09-04T17:23:50.896Z,72.00
2018-09-04T17:26:17.628Z,71.90
2018-09-04T17:28:44.576Z,71.80
2018-09-04T17:31:11.512Z,72.60
2018-09-04T17:33:38.274Z,71.90
2018-09-04T17:36:05.100Z,71.90
2018-09-04T17:38:31.893Z,71.80
2018-09-04T17:40:59.004Z,71.90
2018-09-04T17:43:25.833Z,71.80
2018-09-04T17:45:52.743Z,71.80
2018-09-04T17:48:19.536Z,71.80
2018-09-04T17:50:46.227Z,71.90
2018-09-04T17:53:13.023Z,71.90
2018-09-04T17:55:39.975Z,71.90
2018-09-04T17:58:06.769Z,71.90
2018-09-04T18:00:33.584Z,71.90
2018-09-04T18:03:00.406Z,71.90
2018-09-04T18:05:27.089Z,72.00
2018-09-04T18:07:53.886Z,72.00
2018-09-04T18:10:20.759Z,71.90
2018-09-04T18:12:47.492Z,72.00
2018-09-04T18:15:14.241Z,72.00
2018-09-04T18:17:41.086Z,72.00
2018-09-04T18:20:08.030Z,71.90
2018-09-04T18:22:34.834Z,72.00
2018-09-04T18:25:01.732Z,72.90
2018-09-04T18:27:28.635Z,72.10
2018-09-04T18:29:55.562Z,71.40
2018-09-04T18:32:22.494Z,72.20
2018-09-04T18:34:49.309Z,72.10
2018-09-04T18:37:16.070Z,72.10
2018-09-04T18:39:42.997Z,72.20
2018-09-04T18:42:09.904Z,72.20
2018-09-04T18:44:36.704Z,72.10
2018-09-04T18:47:03.438Z,72.20
2018-09-04T18:49:30.138Z,72.10
2018-09-04T18:51:56.839Z,72.00
2018-09-04T18:54:23.659Z,72.10
2018-09-04T18:56:50.350Z,72.20
2018-09-04T18:59:17.109Z,72.10
2018-09-04T19:01:43.997Z,72.10
2018-09-04T19:04:10.753Z,72.30
2018-09-04T19:06:37.463Z,72.10
2018-09-04T19:09:05.260Z,71.90
2018-09-04T19:11:32.138Z,72.20
2018-09-04T19:13:59.039Z,72.10
2018-09-04T19:16:25.752Z,72.10
2018-09-04T19:18:52.548Z,72.20
2018-09-04T19:24:17.872Z,72.20
2018-09-04T19:26:44.643Z,72.30
2018-09-04T19:29:11.316Z,72.30
2018-09-04T19:31:38.004Z,72.20
2018-09-04T19:34:04.727Z,73.10
2018-09-04T19:36:31.546Z,72.30
2018-09-04T19:38:58.297Z,72.20
2018-09-04T19:41:25.047Z,72.30
2018-09-04T19:43:51.809Z,72.30
2018-09-04T19:46:18.577Z,72.40
2018-09-04T19:48:45.311Z,72.30
2018-09-04T19:51:12.349Z,72.30
2018-09-04T19:53:39.169Z,72.40
2018-09-04T19:56:05.965Z,72.30
2018-09-04T19:58:32.695Z,72.20
2018-09-04T20:00:59.476Z,72.30
2018-09-04T20:03:26.372Z,72.30
2018-09-04T20:05:53.143Z,72.40
2018-09-04T20:08:19.971Z,72.30
2018-09-04T20:10:46.792Z,72.30
2018-09-04T20:13:13.593Z,72.40
2018-09-04T20:15:40.396Z,72.30
2018-09-04T20:18:07.210Z,72.40
2018-09-04T20:20:34.152Z,72.40
2018-09-04T20:23:01.095Z,72.40
2018-09-04T20:25:27.772Z,72.40
2018-09-04T20:27:54.543Z,72.40
2018-09-04T20:30:21.367Z,72.40
2018-09-04T20:32:48.090Z,72.40
2018-09-04T20:35:14.754Z,72.40
2018-09-04T20:37:41.490Z,72.70
2018-09-04T20:40:08.344Z,72.30
2018-09-04T20:42:35.186Z,72.40
2018-09-04T20:45:01.934Z,72.30
2018-09-04T20:47:28.707Z,72.50
2018-09-04T20:49:55.427Z,72.40
2018-09-04T20:52:22.136Z,73.20
2018-09-04T20:54:48.911Z,72.30
2018-09-04T20:57:15.630Z,72.40
2018-09-04T20:59:42.313Z,72.50
2018-09-04T21:02:09.143Z,72.50
2018-09-04T21:04:35.964Z,72.50
2018-09-04T21:07:02.732Z,72.50
2018-09-04T21:10:01.598Z,72.50
2018-09-04T21:12:28.342Z,72.40
2018-09-04T21:14:55.001Z,72.40
2018-09-04T21:17:21.821Z,72.20
2018-09-04T21:19:48.649Z,72.50
2018-09-04T21:22:15.369Z,72.50
2018-09-04T21:24:42.079Z,72.60
2018-09-04T21:27:08.823Z,72.50
2018-09-04T21:29:35.513Z,72.60
2018-09-04T21:32:02.536Z,72.60
2018-09-04T21:34:29.255Z,72.30
2018-09-04T21:36:56.137Z,72.40
2018-09-04T21:39:22.807Z,72.50
2018-09-04T21:41:49.511Z,72.50
2018-09-04T21:44:16.267Z,72.50
2018-09-04T21:46:43.214Z,72.60
2018-09-04T21:49:10.087Z,72.50
2018-09-04T21:51:36.792Z,72.50
2018-09-04T21:54:03.519Z,72.50
2018-09-04T21:56:30.298Z,72.70
2018-09-04T21:58:57.090Z,72.60
2018-09-04T22:01:23.851Z,72.50
2018-09-04T22:03:50.698Z,72.60
2018-09-04T22:06:17.453Z,72.50
2018-09-04T22:08:44.099Z,72.50
2018-09-04T22:11:10.841Z,72.30
2018-09-04T22:13:37.616Z,72.60
2018-09-04T22:16:04.594Z,72.60
2018-09-04T22:18:31.357Z,72.60
2018-09-04T22:20:58.074Z,72.60
2018-09-04T22:23:24.864Z,72.60
2018-09-04T22:25:51.594Z,72.40
2018-09-04T22:28:18.372Z,72.60
2018-09-04T22:30:45.211Z,73.50
2018-09-04T22:33:11.866Z,72.50
2018-09-04T22:35:38.666Z,72.50
2018-09-04T22:38:05.452Z,72.60
2018-09-04T22:40:32.223Z,72.60
2018-09-04T22:42:59.105Z,72.50
2018-09-04T22:45:25.805Z,72.50
2018-09-04T22:47:52.482Z,73.40
2018-09-04T22:50:24.766Z,72.60
2018-09-04T22:52:51.534Z,72.60
2018-09-04T22:55:18.206Z,72.60
2018-09-04T22:57:44.904Z,72.60
2018-09-04T23:00:12.870Z,72.60
2018-09-04T23:02:41.740Z,72.60
2018-09-04T23:05:08.606Z,72.90
2018-09-04T23:07:35.362Z,72.60
2018-09-04T23:10:02.204Z,72.60
2018-09-04T23:12:28.934Z,72.60
2018-09-04T23:14:55.608Z,72.60
2018-09-04T23:17:22.312Z,72.70
2018-09-04T23:19:49.023Z,72.70
2018-09-04T23:22:15.768Z,72.60
2018-09-04T23:24:42.439Z,72.60
2018-09-04T23:27:09.116Z,72.70
2018-09-04T23:29:36.489Z,72.70
2018-09-04T23:32:03.317Z,72.90
2018-09-04T23:34:30.044Z,72.80
2018-09-04T23:36:56.797Z,72.70
2018-09-04T23:39:23.458Z,72.70
2018-09-04T23:41:50.221Z,72.80
2018-09-04T23:44:17.031Z,72.80
2018-09-04T23:46:43.743Z,72.80
2018-09-04T23:49:10.571Z,72.80
2018-09-04T23:51:37.940Z,72.70
2018-09-04T23:54:04.801Z,72.80
2018-09-04T23:56:31.718Z,72.60
2018-09-04T23:58:58.455Z,72.70
